createdAt,value
2017-12-12T05:00:41.946Z,0
2017-12-12T05:01:07.456Z,0
2017-12-12T05:01:32.948Z,0
2017-12-12T05:01:58.413Z,0
2017-12-12T05:02:23.958Z,0
2017-12-12T05:02:49.429Z,0
2017-12-12T05:03:14.972Z,0
2017-12-12T05:03:40.435Z,0
2017-12-12T05:04:05.904Z,0
2017-12-12T05:05:19.680Z,0
2017-12-12T05:05:45.180Z,0
2017-12-12T05:06:10.612Z,0
2017-12-12T05:06:36.127Z,0
2017-12-12T05:07:01.594Z,0
2017-12-12T05:07:27.070Z,0
2017-12-12T05:07:52.551Z,0
2017-12-12T05:08:18.003Z,0
2017-12-12T05:08:43.496Z,0
2017-12-12T05:09:09.036Z,0
2017-12-12T05:09:34.610Z,0
2017-12-12T05:10:00.129Z,0
2017-12-12T05:10:25.644Z,0
2017-12-12T05:10:51.185Z,0
2017-12-12T05:11:16.649Z,0
2017-12-12T05:11:42.146Z,0
2017-12-12T05:12:07.676Z,0
2017-12-12T05:12:33.147Z,0
2017-12-12T05:12:58.664Z,0
2017-12-12T05:13:24.163Z,0
2017-12-12T05:13:49.683Z,0
2017-12-12T05:14:15.132Z,0
2017-12-12T05:14:40.661Z,0
2017-12-12T05:15:06.140Z,0
2017-12-12T05:15:31.660Z,0
2017-12-12T05:15:57.119Z,0
2017-12-12T05:16:22.622Z,0
2017-12-12T05:16:48.110Z,0
2017-12-12T05:17:13.564Z,0
2017-12-12T05:17:39.049Z,0
2017-12-12T05:18:04.540Z,0
2017-12-12T05:18:30.008Z,0
2017-12-12T05:18:55.487Z,0
2017-12-12T05:19:20.987Z,0
2017-12-12T05:19:46.452Z,0
2017-12-12T05:20:11.926Z,0
2017-12-12T05:20:37.420Z,0
2017-12-12T05:21:02.891Z,0
2017-12-12T05:21:28.372Z,0
2017-12-12T05:21:53.893Z,0
2017-12-12T05:22:19.388Z,0
2017-12-12T05:22:44.882Z,0
2017-12-12T05:23:10.380Z,0
2017-12-12T05:23:35.855Z,0
2017-12-12T05:24:01.302Z,0
2017-12-12T05:24:26.794Z,0
2017-12-12T05:24:52.343Z,0
2017-12-12T05:25:17.809Z,0
2017-12-12T05:25:43.276Z,0
2017-12-12T05:26:08.790Z,0
2017-12-12T05:26:34.251Z,0
2017-12-12T05:26:59.735Z,0
2017-12-12T05:27:25.241Z,0
2017-12-12T05:27:50.729Z,0
2017-12-12T05:28:16.254Z,0
2017-12-12T05:28:41.746Z,0
2017-12-12T05:29:07.224Z,0
2017-12-12T05:29:32.734Z,0
2017-12-12T05:29:58.260Z,0
2017-12-12T05:30:23.728Z,0
2017-12-12T05:30:49.223Z,0
2017-12-12T05:31:14.723Z,0
2017-12-12T05:31:40.218Z,0
2017-12-12T05:32:05.722Z,0
2017-12-12T05:32:31.187Z,0
2017-12-12T05:32:56.672Z,0
2017-12-12T05:33:22.156Z,0
2017-12-12T05:33:47.647Z,0
2017-12-12T05:34:13.125Z,0
2017-12-12T05:34:38.612Z,0
2017-12-12T05:35:04.129Z,0
2017-12-12T05:35:29.625Z,0
2017-12-12T05:35:55.099Z,0
2017-12-12T05:36:20.588Z,0
2017-12-12T05:36:46.068Z,0
2017-12-12T05:37:11.539Z,0
2017-12-12T05:37:37.024Z,0
2017-12-12T05:38:02.493Z,0
2017-12-12T05:38:27.974Z,0
2017-12-12T05:38:53.459Z,0
2017-12-12T05:39:18.930Z,0
2017-12-12T05:39:44.427Z,0
2017-12-12T05:40:09.910Z,0
2017-12-12T05:40:35.357Z,0
2017-12-12T05:41:00.820Z,0
2017-12-12T05:41:26.280Z,0
2017-12-12T05:41:51.731Z,0
2017-12-12T05:42:17.198Z,0
2017-12-12T05:42:42.660Z,0
2017-12-12T05:43:08.146Z,0
2017-12-12T05:43:33.641Z,0
2017-12-12T05:44:42.440Z,0
2017-12-12T05:45:07.845Z,0
2017-12-12T05:45:33.317Z,0
2017-12-12T05:45:58.811Z,0
2017-12-12T05:46:24.317Z,0
2017-12-12T05:46:49.795Z,0
2017-12-12T05:47:15.264Z,0
2017-12-12T05:47:40.711Z,0
2017-12-12T05:49:04.739Z,0
2017-12-12T05:49:30.215Z,0
2017-12-12T05:49:55.736Z,0
2017-12-12T05:50:21.219Z,0
2017-12-12T05:50:46.663Z,0
2017-12-12T05:51:12.160Z,0
2017-12-12T05:51:37.636Z,0
2017-12-12T05:52:03.099Z,0
2017-12-12T05:52:28.598Z,0
2017-12-12T05:52:54.078Z,0
2017-12-12T05:53:19.501Z,0
2017-12-12T05:54:28.196Z,0
2017-12-12T05:54:53.734Z,0
2017-12-12T05:55:19.192Z,0
2017-12-12T05:55:44.674Z,0
2017-12-12T05:56:10.174Z,0
2017-12-12T05:56:35.730Z,0
2017-12-12T05:57:01.188Z,0
2017-12-12T05:57:26.686Z,0
2017-12-12T05:57:52.173Z,0
2017-12-12T05:58:17.669Z,0
2017-12-12T05:58:43.139Z,0
2017-12-12T05:59:08.606Z,0
2017-12-12T05:59:34.168Z,0
2017-12-12T05:59:59.674Z,0
2017-12-12T06:00:25.175Z,0
2017-12-12T06:00:50.706Z,0
2017-12-12T06:01:16.134Z,0
2017-12-12T06:01:41.637Z,0
2017-12-12T06:02:07.146Z,0
2017-12-12T06:02:32.620Z,0
2017-12-12T06:02:58.125Z,0
2017-12-12T06:03:23.611Z,0
2017-12-12T06:04:47.656Z,0
2017-12-12T06:05:13.126Z,0
2017-12-12T06:05:38.611Z,0
2017-12-12T06:06:04.090Z,0
2017-12-12T06:06:29.565Z,0
2017-12-12T06:06:55.037Z,0
2017-12-12T06:07:20.567Z,0
2017-12-12T06:07:45.983Z,0
2017-12-12T06:08:11.476Z,0
2017-12-12T06:08:36.965Z,0
2017-12-12T06:09:02.454Z,0
2017-12-12T06:09:27.919Z,0
2017-12-12T06:10:46.806Z,0
2017-12-12T06:11:12.298Z,0
2017-12-12T06:11:37.797Z,0
2017-12-12T06:12:03.222Z,0
2017-12-12T06:12:28.708Z,0
2017-12-12T06:12:54.216Z,0
2017-12-12T06:13:19.704Z,0
2017-12-12T06:13:45.182Z,0
2017-12-12T06:14:10.655Z,0
2017-12-12T06:14:36.098Z,0
2017-12-12T06:15:01.612Z,0
2017-12-12T06:15:27.034Z,0
2017-12-12T06:15:52.512Z,0
2017-12-12T06:17:01.209Z,0
2017-12-12T06:17:26.653Z,0
2017-12-12T06:17:52.111Z,0
2017-12-12T06:18:17.606Z,0
2017-12-12T06:18:43.081Z,0
2017-12-12T06:19:08.578Z,0
2017-12-12T06:19:34.002Z,0
2017-12-12T06:19:59.486Z,0
2017-12-12T06:20:24.955Z,0
2017-12-12T06:20:50.427Z,0
2017-12-12T06:21:15.899Z,0
2017-12-12T06:21:41.429Z,0
2017-12-12T06:22:06.916Z,0
2017-12-12T06:22:32.343Z,0
2017-12-12T06:22:57.797Z,0
2017-12-12T06:23:25.082Z,0
2017-12-12T06:23:50.600Z,0
2017-12-12T06:24:16.167Z,0
2017-12-12T06:24:41.605Z,0
2017-12-12T06:25:07.129Z,0
2017-12-12T06:25:32.736Z,0
2017-12-12T06:25:58.256Z,0
2017-12-12T06:26:23.733Z,0
2017-12-12T06:26:49.246Z,0
2017-12-12T06:27:14.874Z,0
2017-12-12T06:27:40.286Z,0
2017-12-12T06:28:05.739Z,0
2017-12-12T06:28:31.199Z,0
2017-12-12T06:28:56.769Z,0
2017-12-12T06:29:22.315Z,0
2017-12-12T06:29:47.742Z,0
2017-12-12T06:30:13.277Z,0
2017-12-12T06:30:38.989Z,0
2017-12-12T06:31:04.343Z,0
2017-12-12T06:31:29.804Z,0
2017-12-12T06:31:55.263Z,0
2017-12-12T06:32:20.690Z,0
2017-12-12T06:32:46.323Z,0
2017-12-12T06:33:11.890Z,0
2017-12-12T06:33:37.341Z,0
2017-12-12T06:34:02.855Z,0
2017-12-12T06:34:28.400Z,0
2017-12-12T06:34:53.952Z,0
2017-12-12T06:35:19.381Z,0
2017-12-12T06:35:44.900Z,0
2017-12-12T06:36:10.377Z,0
2017-12-12T06:36:35.884Z,0
2017-12-12T06:37:01.330Z,0
2017-12-12T06:37:26.821Z,0
2017-12-12T06:37:52.266Z,0
2017-12-12T06:38:17.814Z,0
2017-12-12T06:38:43.273Z,0
2017-12-12T06:39:08.790Z,0
2017-12-12T06:39:34.282Z,0
2017-12-12T06:39:59.792Z,0
2017-12-12T06:40:25.246Z,0
2017-12-12T06:40:50.714Z,0
2017-12-12T06:41:16.178Z,0
2017-12-12T06:41:41.636Z,0
2017-12-12T06:42:07.128Z,0
2017-12-12T06:42:32.577Z,0
2017-12-12T06:42:58.070Z,0
2017-12-12T06:43:23.561Z,0
2017-12-12T06:43:49.006Z,0
2017-12-12T06:44:14.473Z,0
2017-12-12T06:44:39.952Z,0
2017-12-12T06:45:05.464Z,0
2017-12-12T06:45:30.954Z,0
2017-12-12T06:45:56.424Z,0
2017-12-12T06:47:00.043Z,0
2017-12-12T06:47:25.524Z,0
2017-12-12T06:47:51.079Z,0
2017-12-12T06:48:16.561Z,0
2017-12-12T06:48:42.093Z,0
2017-12-12T06:49:07.590Z,0
2017-12-12T06:49:33.114Z,0
2017-12-12T06:49:58.599Z,0
2017-12-12T06:50:24.086Z,0
2017-12-12T06:50:49.632Z,0
2017-12-12T06:51:15.165Z,0
2017-12-12T06:51:40.670Z,0
2017-12-12T06:52:06.217Z,0
2017-12-12T06:52:31.708Z,0
2017-12-12T06:52:57.122Z,0
2017-12-12T06:53:22.618Z,0
2017-12-12T06:53:48.120Z,0
2017-12-12T06:54:13.621Z,0
2017-12-12T06:54:39.184Z,0
2017-12-12T06:55:04.644Z,4
2017-12-12T06:55:30.156Z,4
2017-12-12T06:55:55.647Z,4
2017-12-12T06:56:21.136Z,4
2017-12-12T06:56:46.635Z,4
2017-12-12T06:57:12.101Z,4
2017-12-12T06:57:37.630Z,4
2017-12-12T06:58:03.115Z,4
2017-12-12T06:58:28.604Z,4
2017-12-12T06:58:54.091Z,4
2017-12-12T06:59:19.588Z,4
2017-12-12T06:59:45.045Z,4
2017-12-12T07:00:10.544Z,4
2017-12-12T07:00:36.131Z,4
2017-12-12T07:01:01.576Z,4
2017-12-12T07:01:27.079Z,4
2017-12-12T07:01:52.617Z,4
2017-12-12T07:02:18.077Z,4
2017-12-12T07:02:43.563Z,4
2017-12-12T07:03:09.023Z,4
2017-12-12T07:03:34.509Z,8
2017-12-12T07:03:59.968Z,4
2017-12-12T07:04:25.513Z,8
2017-12-12T07:04:50.993Z,8
2017-12-12T07:05:16.544Z,8
2017-12-12T07:05:41.961Z,12
2017-12-12T07:06:07.571Z,12
2017-12-12T07:06:33.051Z,8
2017-12-12T07:06:58.528Z,12
2017-12-12T07:07:24.057Z,12
2017-12-12T07:07:49.598Z,16
2017-12-12T07:08:15.037Z,16
2017-12-12T07:08:40.576Z,16
2017-12-12T07:09:06.044Z,16
2017-12-12T07:09:31.504Z,16
2017-12-12T07:09:57.002Z,20
2017-12-12T07:10:22.469Z,20
2017-12-12T07:10:47.975Z,20
2017-12-12T07:11:13.406Z,20
2017-12-12T07:11:38.901Z,20
2017-12-12T07:12:04.408Z,20
2017-12-12T07:12:29.870Z,24
2017-12-12T07:12:55.347Z,24
2017-12-12T07:13:20.787Z,32
2017-12-12T07:13:46.293Z,36
2017-12-12T07:14:11.791Z,40
2017-12-12T07:14:37.260Z,40
2017-12-12T07:15:02.744Z,36
2017-12-12T07:15:28.191Z,40
2017-12-12T07:15:53.647Z,40
2017-12-12T07:17:17.649Z,32
2017-12-12T07:17:43.110Z,32
2017-12-12T07:18:08.576Z,28
2017-12-12T07:18:34.000Z,24
2017-12-12T07:18:59.446Z,32
2017-12-12T07:19:24.938Z,32
2017-12-12T07:19:50.463Z,36
2017-12-12T07:20:15.915Z,40
2017-12-12T07:20:41.416Z,44
2017-12-12T07:21:06.894Z,48
2017-12-12T07:21:32.405Z,52
2017-12-12T07:21:57.921Z,60
2017-12-12T07:22:23.371Z,60
2017-12-12T07:22:48.870Z,64
2017-12-12T07:23:57.578Z,76
2017-12-12T07:24:23.084Z,84
2017-12-12T07:24:48.609Z,84
2017-12-12T07:25:14.077Z,92
2017-12-12T07:25:39.582Z,96
2017-12-12T07:26:05.113Z,96
2017-12-12T07:26:30.609Z,108
2017-12-12T07:26:56.103Z,100
2017-12-12T07:27:21.584Z,104
2017-12-12T07:27:47.104Z,108
2017-12-12T07:28:12.603Z,112
2017-12-12T07:28:38.112Z,112
2017-12-12T07:29:03.593Z,108
2017-12-12T07:29:29.088Z,112
2017-12-12T07:29:54.594Z,108
2017-12-12T07:30:20.088Z,116
2017-12-12T07:30:45.623Z,120
2017-12-12T07:31:11.093Z,128
2017-12-12T07:31:36.570Z,132
2017-12-12T07:32:02.077Z,152
2017-12-12T07:32:27.632Z,156
2017-12-12T07:32:53.165Z,176
2017-12-12T07:33:18.662Z,188
2017-12-12T07:33:44.154Z,196
2017-12-12T07:34:09.622Z,196
2017-12-12T07:34:35.106Z,196
2017-12-12T07:35:00.560Z,200
2017-12-12T07:35:26.042Z,200
2017-12-12T07:35:51.575Z,204
2017-12-12T07:36:17.061Z,196
2017-12-12T07:36:42.561Z,196
2017-12-12T07:37:08.112Z,212
2017-12-12T07:37:33.598Z,220
2017-12-12T07:37:59.094Z,216
2017-12-12T07:38:24.600Z,220
2017-12-12T07:38:50.112Z,224
2017-12-12T07:39:15.605Z,228
2017-12-12T07:39:41.067Z,232
2017-12-12T07:40:06.563Z,220
2017-12-12T07:40:32.093Z,236
2017-12-12T07:40:57.613Z,252
2017-12-12T07:41:23.098Z,248
2017-12-12T07:42:36.923Z,228
2017-12-12T07:43:02.444Z,232
2017-12-12T07:43:27.918Z,236
2017-12-12T07:43:53.390Z,228
2017-12-12T07:44:18.913Z,224
2017-12-12T07:44:44.401Z,240
2017-12-12T07:45:09.873Z,236
2017-12-12T07:45:35.379Z,252
2017-12-12T07:46:00.823Z,244
2017-12-12T07:46:26.305Z,244
2017-12-12T07:46:51.863Z,248
2017-12-12T07:47:55.512Z,248
2017-12-12T07:48:21.045Z,260
2017-12-12T07:48:46.561Z,244
2017-12-12T07:49:12.056Z,248
2017-12-12T07:50:20.742Z,260
2017-12-12T07:50:46.211Z,280
2017-12-12T07:51:11.734Z,328
2017-12-12T07:51:37.183Z,328
2017-12-12T07:52:02.694Z,332
2017-12-12T07:52:28.174Z,368
2017-12-12T07:52:53.640Z,332
2017-12-12T07:53:19.104Z,332
2017-12-12T07:53:44.654Z,332
2017-12-12T07:54:10.180Z,340
2017-12-12T07:54:35.731Z,368
2017-12-12T07:55:01.255Z,372
2017-12-12T07:55:26.759Z,348
2017-12-12T07:55:52.265Z,328
2017-12-12T07:56:17.747Z,332
2017-12-12T07:56:43.266Z,368
2017-12-12T07:57:08.764Z,380
2017-12-12T07:57:34.283Z,356
2017-12-12T07:57:59.808Z,340
2017-12-12T07:58:25.289Z,344
2017-12-12T07:59:39.108Z,428
2017-12-12T08:00:04.615Z,416
2017-12-12T08:00:30.106Z,436
2017-12-12T08:00:55.663Z,484
2017-12-12T08:01:21.082Z,468
2017-12-12T08:01:46.574Z,460
2017-12-12T08:02:12.055Z,500
2017-12-12T08:02:37.558Z,536
2017-12-12T08:03:03.050Z,520
2017-12-12T08:03:28.536Z,536
2017-12-12T08:03:54.000Z,592
2017-12-12T08:04:19.481Z,580
2017-12-12T08:04:44.995Z,548
2017-12-12T08:05:10.480Z,516
2017-12-12T08:05:35.984Z,556
2017-12-12T08:06:01.474Z,676
2017-12-12T08:06:26.951Z,768
2017-12-12T08:06:52.402Z,788
2017-12-12T08:07:17.874Z,684
2017-12-12T08:07:43.366Z,616
2017-12-12T08:08:08.892Z,648
2017-12-12T08:08:34.359Z,616
2017-12-12T08:08:59.856Z,536
2017-12-12T08:09:25.320Z,460
2017-12-12T08:09:50.826Z,492
2017-12-12T08:10:16.332Z,472
2017-12-12T08:10:41.942Z,456
2017-12-12T08:11:07.427Z,480
2017-12-12T08:11:32.909Z,500
2017-12-12T08:11:58.402Z,496
2017-12-12T08:13:12.244Z,436
2017-12-12T08:13:37.702Z,412
2017-12-12T08:14:03.162Z,416
2017-12-12T08:14:28.707Z,468
2017-12-12T08:14:54.140Z,472
2017-12-12T08:15:19.638Z,472
2017-12-12T08:15:45.082Z,496
2017-12-12T08:16:10.629Z,492
2017-12-12T08:16:36.144Z,480
2017-12-12T08:17:01.652Z,472
2017-12-12T08:17:27.148Z,488
2017-12-12T08:17:52.731Z,496
2017-12-12T08:18:18.259Z,532
2017-12-12T08:18:43.718Z,520
2017-12-12T08:19:09.200Z,504
2017-12-12T08:19:34.702Z,532
2017-12-12T08:20:00.209Z,556
2017-12-12T08:20:25.667Z,548
2017-12-12T08:20:51.173Z,552
2017-12-12T08:21:16.638Z,560
2017-12-12T08:21:42.146Z,540
2017-12-12T08:22:07.659Z,516
2017-12-12T08:22:33.172Z,516
2017-12-12T08:22:58.718Z,520
2017-12-12T08:23:24.188Z,560
2017-12-12T08:23:49.664Z,644
2017-12-12T08:24:15.149Z,636
2017-12-12T08:24:40.612Z,620
2017-12-12T08:25:06.088Z,660
2017-12-12T08:25:31.642Z,640
2017-12-12T08:25:57.156Z,672
2017-12-12T08:26:22.669Z,724
2017-12-12T08:26:48.188Z,724
2017-12-12T08:27:13.632Z,712
2017-12-12T08:27:39.119Z,708
2017-12-12T08:28:04.538Z,772
2017-12-12T08:28:30.009Z,764
2017-12-12T08:28:55.493Z,740
2017-12-12T08:29:21.003Z,836
2017-12-12T08:29:46.484Z,968
2017-12-12T08:30:11.961Z,960
2017-12-12T08:30:37.444Z,968
2017-12-12T08:31:02.902Z,976
2017-12-12T08:31:28.448Z,1060
2017-12-12T08:31:53.955Z,1100
2017-12-12T08:32:19.455Z,1124
2017-12-12T08:32:44.983Z,1052
2017-12-12T08:33:10.426Z,1120
2017-12-12T08:33:35.911Z,1052
2017-12-12T08:34:01.471Z,1092
2017-12-12T08:34:26.942Z,1276
2017-12-12T08:34:52.433Z,1228
2017-12-12T08:35:17.945Z,1232
2017-12-12T08:35:43.511Z,1272
2017-12-12T08:36:09.023Z,1256
2017-12-12T08:36:34.479Z,1280
2017-12-12T08:36:59.993Z,1216
2017-12-12T08:37:25.492Z,1316
2017-12-12T08:37:50.992Z,1472
2017-12-12T08:38:16.564Z,1500
2017-12-12T08:38:42.075Z,1444
2017-12-12T08:39:07.592Z,1528
2017-12-12T08:39:33.094Z,1396
2017-12-12T08:39:58.644Z,1324
2017-12-12T08:40:24.173Z,1308
2017-12-12T08:40:49.688Z,1180
2017-12-12T08:41:15.218Z,1004
2017-12-12T08:41:40.689Z,956
2017-12-12T08:42:06.196Z,1212
2017-12-12T08:42:31.713Z,1272
2017-12-12T08:42:57.275Z,1188
2017-12-12T08:43:22.734Z,1172
2017-12-12T08:43:48.261Z,1008
2017-12-12T08:44:13.712Z,1008
2017-12-12T08:45:32.587Z,1164
2017-12-12T08:45:58.071Z,1288
2017-12-12T08:46:23.538Z,1180
2017-12-12T08:46:49.013Z,1116
2017-12-12T08:47:14.475Z,1004
2017-12-12T08:47:39.969Z,912
2017-12-12T08:48:05.434Z,816
2017-12-12T08:48:30.957Z,780
2017-12-12T08:48:56.394Z,716
2017-12-12T08:49:21.911Z,832
2017-12-12T08:49:47.365Z,828
2017-12-12T08:50:12.864Z,904
2017-12-12T08:50:38.324Z,884
2017-12-12T08:51:03.817Z,924
2017-12-12T08:51:29.285Z,884
2017-12-12T08:51:54.754Z,936
2017-12-12T08:52:20.269Z,1068
2017-12-12T08:52:45.751Z,1172
2017-12-12T08:53:11.232Z,1300
2017-12-12T08:53:36.704Z,1364
2017-12-12T08:54:02.161Z,1408
2017-12-12T08:54:27.629Z,1324
2017-12-12T08:54:53.124Z,1340
2017-12-12T08:55:18.589Z,1392
2017-12-12T08:55:44.111Z,1444
2017-12-12T08:56:09.626Z,1428
2017-12-12T08:56:35.088Z,1512
2017-12-12T08:57:00.606Z,1364
2017-12-12T08:57:26.072Z,1208
2017-12-12T08:57:51.555Z,1140
2017-12-12T08:58:17.047Z,1176
2017-12-12T08:58:42.548Z,1160
2017-12-12T08:59:08.014Z,1120
2017-12-12T08:59:33.513Z,1028
2017-12-12T08:59:59.039Z,1056
2017-12-12T09:00:24.533Z,1092
2017-12-12T09:00:49.996Z,1188
2017-12-12T09:01:15.449Z,1368
2017-12-12T09:01:40.912Z,1424
2017-12-12T09:02:06.392Z,1436
2017-12-12T09:02:31.972Z,1476
2017-12-12T09:02:57.450Z,1580
2017-12-12T09:03:22.888Z,1404
2017-12-12T09:03:48.365Z,1396
2017-12-12T09:04:13.828Z,1380
2017-12-12T09:04:39.303Z,1352
2017-12-12T09:05:04.792Z,1288
2017-12-12T09:05:30.271Z,1260
2017-12-12T09:05:55.748Z,1312
2017-12-12T09:06:21.221Z,1348
2017-12-12T09:06:46.740Z,1304
2017-12-12T09:07:12.198Z,1308
2017-12-12T09:07:37.715Z,1376
2017-12-12T09:08:03.181Z,1388
2017-12-12T09:08:28.670Z,1636
2017-12-12T09:08:54.160Z,1728
2017-12-12T09:09:19.636Z,1896
2017-12-12T09:09:45.150Z,1780
2017-12-12T09:10:10.641Z,1588
2017-12-12T09:10:36.134Z,1568
2017-12-12T09:11:01.567Z,1636
2017-12-12T09:12:20.814Z,1828
2017-12-12T09:13:34.788Z,2240
2017-12-12T09:14:00.276Z,1936
2017-12-12T09:14:25.774Z,1764
2017-12-12T09:14:51.297Z,1756
2017-12-12T09:16:15.266Z,1508
2017-12-12T09:16:40.763Z,1424
2017-12-12T09:17:06.250Z,1588
2017-12-12T09:17:31.740Z,1532
2017-12-12T09:17:57.213Z,1448
2017-12-12T09:18:22.686Z,1296
2017-12-12T09:18:48.177Z,1440
2017-12-12T09:19:13.650Z,1504
2017-12-12T09:19:39.131Z,1520
2017-12-12T09:20:04.592Z,1508
2017-12-12T09:20:30.072Z,1380
2017-12-12T09:20:55.558Z,1376
2017-12-12T09:21:21.036Z,1496
2017-12-12T09:21:46.557Z,1484
2017-12-12T09:22:12.020Z,1520
2017-12-12T09:22:37.515Z,1656
2017-12-12T09:23:03.025Z,1520
2017-12-12T09:23:28.504Z,1560
2017-12-12T09:23:54.019Z,1448
2017-12-12T09:24:19.431Z,1532
2017-12-12T09:24:44.943Z,1576
2017-12-12T09:25:10.429Z,1452
2017-12-12T09:25:35.883Z,1684
2017-12-12T09:26:01.412Z,1520
2017-12-12T09:26:26.865Z,1596
2017-12-12T09:26:52.344Z,1460
2017-12-12T09:27:17.855Z,1460
2017-12-12T09:27:43.373Z,1484
2017-12-12T09:28:08.838Z,1512
2017-12-12T09:28:34.311Z,1668
2017-12-12T09:28:59.781Z,1740
2017-12-12T09:29:25.219Z,1800
2017-12-12T09:29:50.717Z,1752
2017-12-12T09:30:16.187Z,1604
2017-12-12T09:30:41.639Z,1768
2017-12-12T09:31:07.130Z,1740
2017-12-12T09:31:32.612Z,1724
2017-12-12T09:31:58.057Z,1556
2017-12-12T09:32:23.595Z,1604
2017-12-12T09:32:49.198Z,1664
2017-12-12T09:34:03.278Z,2392
2017-12-12T09:34:28.797Z,1900
2017-12-12T09:34:54.262Z,1740
2017-12-12T09:35:19.733Z,1784
2017-12-12T09:35:45.164Z,1848
2017-12-12T09:36:10.716Z,1804
2017-12-12T09:36:36.154Z,1816
2017-12-12T09:37:01.648Z,1840
2017-12-12T09:37:27.104Z,1632
2017-12-12T09:37:52.635Z,1536
2017-12-12T09:38:18.065Z,1420
2017-12-12T09:38:43.541Z,1468
2017-12-12T09:39:09.026Z,1492
2017-12-12T09:39:34.496Z,1516
2017-12-12T09:39:59.984Z,1712
2017-12-12T09:40:25.454Z,1760
2017-12-12T09:40:50.927Z,1744
2017-12-12T09:41:16.369Z,1652
2017-12-12T09:41:41.840Z,1676
2017-12-12T09:42:07.322Z,1568
2017-12-12T09:42:32.772Z,1488
2017-12-12T09:42:58.247Z,1460
2017-12-12T09:43:23.754Z,1564
2017-12-12T09:43:49.213Z,1760
2017-12-12T09:44:14.719Z,1856
2017-12-12T09:44:40.217Z,1772
2017-12-12T09:45:05.696Z,1628
2017-12-12T09:45:31.172Z,1772
2017-12-12T09:45:56.593Z,1720
2017-12-12T09:47:10.408Z,1700
2017-12-12T09:47:35.860Z,1548
2017-12-12T09:48:01.349Z,1884
2017-12-12T09:48:26.829Z,1944
2017-12-12T09:48:52.295Z,1776
2017-12-12T09:49:17.809Z,1708
2017-12-12T09:49:43.277Z,1896
2017-12-12T09:50:08.740Z,1604
2017-12-12T09:50:34.219Z,1684
2017-12-12T09:51:53.129Z,2000
2017-12-12T09:52:18.612Z,1768
2017-12-12T09:52:44.094Z,1840
2017-12-12T09:53:09.610Z,1768
2017-12-12T09:53:35.101Z,1596
2017-12-12T09:54:00.563Z,1492
2017-12-12T09:54:26.085Z,1480
2017-12-12T09:54:51.596Z,1432
2017-12-12T09:55:17.087Z,1480
2017-12-12T09:55:42.525Z,1612
2017-12-12T09:56:08.040Z,1696
2017-12-12T09:56:33.542Z,1520
2017-12-12T09:56:58.984Z,1608
2017-12-12T09:57:24.416Z,1608
2017-12-12T09:57:49.898Z,1640
2017-12-12T09:58:15.341Z,1592
2017-12-12T09:58:40.813Z,1584
2017-12-12T09:59:06.255Z,1648
2017-12-12T09:59:31.700Z,1728
2017-12-12T09:59:57.179Z,1860
2017-12-12T10:00:22.658Z,1896
2017-12-12T10:00:48.105Z,1772
2017-12-12T10:01:13.567Z,1792
2017-12-12T10:01:39.073Z,1644
2017-12-12T10:02:04.530Z,1752
2017-12-12T10:02:29.982Z,2088
2017-12-12T10:03:44.764Z,1928
2017-12-12T10:04:10.258Z,2104
2017-12-12T10:04:35.719Z,1956
2017-12-12T10:05:01.198Z,1992
2017-12-12T10:05:26.684Z,1840
2017-12-12T10:06:45.618Z,2316
2017-12-12T10:07:11.100Z,2128
2017-12-12T10:07:36.602Z,2168
2017-12-12T10:08:45.238Z,1864
2017-12-12T10:09:10.723Z,1748
2017-12-12T10:09:36.170Z,1876
2017-12-12T10:10:01.630Z,1828
2017-12-12T10:10:27.130Z,1712
2017-12-12T10:10:52.588Z,2084
2017-12-12T10:11:18.074Z,2004
2017-12-12T10:11:43.509Z,1888
2017-12-12T10:12:09.003Z,1880
2017-12-12T10:12:34.509Z,1672
2017-12-12T10:12:59.971Z,1916
2017-12-12T10:13:25.448Z,1940
2017-12-12T10:13:50.944Z,2064
2017-12-12T10:14:16.372Z,1816
2017-12-12T10:14:41.851Z,1952
2017-12-12T10:15:07.332Z,2280
2017-12-12T10:16:16.412Z,1956
2017-12-12T10:16:41.903Z,1904
2017-12-12T10:17:07.403Z,1828
2017-12-12T10:17:32.899Z,1952
2017-12-12T10:17:58.376Z,2228
2017-12-12T10:18:23.824Z,2376
2017-12-12T10:18:49.329Z,2320
2017-12-12T10:19:14.813Z,2048
2017-12-12T10:19:40.280Z,2144
2017-12-12T10:20:05.732Z,2020
2017-12-12T10:20:31.175Z,2264
2017-12-12T10:20:56.675Z,2284
2017-12-12T10:21:22.150Z,2364
2017-12-12T10:21:47.631Z,2392
2017-12-12T10:22:13.120Z,2252
2017-12-12T10:22:38.622Z,2332
2017-12-12T10:23:04.144Z,2176
2017-12-12T10:23:29.621Z,2168
2017-12-12T10:23:55.065Z,2352
2017-12-12T10:25:13.939Z,1924
2017-12-12T10:25:39.396Z,1968
2017-12-12T10:26:04.865Z,1828
2017-12-12T10:26:30.335Z,1704
2017-12-12T10:26:55.832Z,1552
2017-12-12T10:27:21.300Z,1472
2017-12-12T10:27:46.781Z,1476
2017-12-12T10:28:50.375Z,1784
2017-12-12T10:29:15.858Z,1876
2017-12-12T10:29:41.359Z,1880
2017-12-12T10:30:06.810Z,1904
2017-12-12T10:30:32.273Z,1868
2017-12-12T10:30:57.750Z,1692
2017-12-12T10:31:23.236Z,1552
2017-12-12T10:31:48.706Z,1612
2017-12-12T10:32:14.205Z,1512
2017-12-12T10:32:39.674Z,1516
2017-12-12T10:33:05.152Z,1696
2017-12-12T10:33:30.613Z,1740
2017-12-12T10:33:56.102Z,1680
2017-12-12T10:34:21.593Z,1856
2017-12-12T10:34:47.071Z,1872
2017-12-12T10:35:12.573Z,1676
2017-12-12T10:35:38.149Z,1648
2017-12-12T10:36:03.547Z,1608
2017-12-12T10:36:29.071Z,1308
2017-12-12T10:36:54.523Z,1240
2017-12-12T10:37:19.996Z,1316
2017-12-12T10:37:45.497Z,1328
2017-12-12T10:38:10.952Z,1396
2017-12-12T10:38:36.430Z,1568
2017-12-12T10:39:01.984Z,1544
2017-12-12T10:39:27.392Z,1616
2017-12-12T10:39:52.855Z,1852
2017-12-12T10:40:18.312Z,1852
2017-12-12T10:40:43.771Z,1756
2017-12-12T10:41:09.214Z,1552
2017-12-12T10:41:34.713Z,1624
2017-12-12T10:42:00.208Z,1680
2017-12-12T10:42:25.691Z,1568
2017-12-12T10:42:51.197Z,1428
2017-12-12T10:43:16.650Z,1844
2017-12-12T10:43:42.128Z,1868
2017-12-12T10:44:07.559Z,1916
2017-12-12T10:44:33.097Z,1872
2017-12-12T10:44:58.568Z,1992
2017-12-12T10:45:24.070Z,1676
2017-12-12T10:45:49.554Z,1640
2017-12-12T10:46:15.004Z,1580
2017-12-12T10:46:40.481Z,1588
2017-12-12T10:47:05.956Z,1532
2017-12-12T10:47:31.486Z,1476
2017-12-12T10:47:56.965Z,1684
2017-12-12T10:48:22.495Z,1708
2017-12-12T10:48:47.983Z,1768
2017-12-12T10:49:13.419Z,1792
2017-12-12T10:49:38.873Z,1800
2017-12-12T10:50:04.347Z,1904
2017-12-12T10:50:29.806Z,1796
2017-12-12T10:50:55.257Z,1616
2017-12-12T10:51:20.747Z,1552
2017-12-12T10:51:46.227Z,1452
2017-12-12T10:52:11.699Z,1400
2017-12-12T10:52:37.202Z,1364
2017-12-12T10:53:02.682Z,1380
2017-12-12T10:53:28.169Z,1444
2017-12-12T10:53:53.620Z,1468
2017-12-12T10:54:19.106Z,1492
2017-12-12T10:54:44.604Z,1612
2017-12-12T10:55:10.118Z,1672
2017-12-12T10:55:35.577Z,1532
2017-12-12T10:56:01.043Z,1504
2017-12-12T10:56:26.530Z,1420
2017-12-12T10:56:51.991Z,1416
2017-12-12T10:57:17.480Z,1416
2017-12-12T10:57:42.904Z,1532
2017-12-12T10:58:08.351Z,1332
2017-12-12T10:58:33.820Z,1416
2017-12-12T10:58:59.333Z,1464
2017-12-12T10:59:24.798Z,1352
2017-12-12T10:59:50.267Z,1112
2017-12-12T11:00:15.763Z,1232
2017-12-12T11:00:41.233Z,1240
2017-12-12T11:01:06.723Z,1236
2017-12-12T11:01:32.188Z,1184
2017-12-12T11:01:57.680Z,1184
2017-12-12T11:02:23.161Z,1204
2017-12-12T11:02:48.613Z,1324
2017-12-12T11:03:14.123Z,1348
2017-12-12T11:03:39.591Z,1632
2017-12-12T11:04:05.046Z,1432
2017-12-12T11:04:30.544Z,1528
2017-12-12T11:04:55.978Z,1380
2017-12-12T11:05:21.451Z,1444
2017-12-12T11:05:46.960Z,1620
2017-12-12T11:06:12.431Z,1516
2017-12-12T11:06:37.963Z,1484
2017-12-12T11:07:03.399Z,1312
2017-12-12T11:07:28.843Z,1300
2017-12-12T11:07:54.321Z,1348
2017-12-12T11:08:19.799Z,1340
2017-12-12T11:08:45.326Z,1424
2017-12-12T11:09:10.760Z,1388
2017-12-12T11:09:36.300Z,1604
2017-12-12T11:10:01.774Z,1584
2017-12-12T11:10:27.223Z,1672
2017-12-12T11:10:52.752Z,1680
2017-12-12T11:11:18.170Z,1736
2017-12-12T11:11:43.632Z,1596
2017-12-12T11:12:09.152Z,1616
2017-12-12T11:12:34.645Z,1828
2017-12-12T11:13:00.080Z,1804
2017-12-12T11:13:25.559Z,1804
2017-12-12T11:13:51.064Z,1756
2017-12-12T11:14:16.546Z,1860
2017-12-12T11:14:42.005Z,1912
2017-12-12T11:15:07.512Z,1812
2017-12-12T11:15:32.974Z,1572
2017-12-12T11:15:58.393Z,1548
2017-12-12T11:16:23.936Z,1364
2017-12-12T11:16:49.452Z,1352
2017-12-12T11:17:14.876Z,1352
2017-12-12T11:17:40.411Z,1332